Apodaca, New Mexico
Current Conditions -  °F | °C
As of 12:55 AM on Monday 24 Nov 2014 (Local Time) from KSKX Reporting Station
Clear Clear  
Wind Chill: -12°   Ceiling: Unl
Heat Index: -12°   Visibility: 10mi
Dew Point: -17°   Wind: 3mph
Humidity: 67%   Direction: 300°WNW
Pressure: 30.03"   Gusts: NA
Location:  36.1644°N, 105.863°W
Report Text: KSKX 240755Z AUTO 30003KT 10SM CLR M12/M17 A3003 RMK AO1
Loading
Personal Weather Stations






























Interactive Weather Map New forecast layout! Learn more

10-Day Weather Forecast

Advertisements
Track Severe Weather on mobile